createdAt,value
2018-09-22T10:03:16.181Z,99824.52
2018-09-22T10:05:44.483Z,99831.34
2018-09-22T10:08:12.602Z,99825.48
2018-09-22T10:10:40.775Z,99827.19
2018-09-22T10:13:08.946Z,99821.32
2018-09-22T10:15:36.690Z,99822.07
2018-09-22T10:18:04.589Z,99820.77
2018-09-22T10:20:32.852Z,99824.17
2018-09-22T10:23:00.718Z,99811.44
2018-09-22T10:25:28.451Z,99811.48
2018-09-22T10:27:56.227Z,99817.19
2018-09-22T10:30:24.316Z,99809.97
2018-09-22T10:32:52.485Z,99801.22
2018-09-22T10:35:20.350Z,99798.57
2018-09-22T10:37:48.080Z,99793.52
2018-09-22T10:40:16.149Z,99790.03
2018-09-22T10:42:44.358Z,99788.01
2018-09-22T10:45:12.422Z,99781.95
2018-09-22T10:47:40.577Z,99776.72
2018-09-22T10:50:08.513Z,99773.36
2018-09-22T10:52:36.485Z,99761.27
2018-09-22T10:55:04.275Z,99764.67
2018-09-22T10:57:32.049Z,99753.08
2018-09-22T10:59:59.778Z,99755.44
2018-09-22T11:02:27.526Z,99749.55
2018-09-22T11:04:55.293Z,99743.99
2018-09-22T11:07:23.055Z,99743.67
2018-09-22T11:09:50.793Z,99736.94
2018-09-22T11:12:18.538Z,99735.91
2018-09-22T11:14:46.253Z,99732.53
2018-09-22T11:17:13.974Z,99734.53
2018-09-22T11:19:41.676Z,99727.80
2018-09-22T11:22:09.426Z,99728.98
2018-09-22T11:24:37.135Z,99724.94
2018-09-22T11:27:04.992Z,99726.13
2018-09-22T11:29:32.729Z,99727.15
2018-09-22T11:32:00.438Z,99725.80
2018-09-22T11:34:28.209Z,99730.49
2018-09-22T11:36:55.934Z,99721.37
2018-09-22T11:39:23.642Z,99722.55
2018-09-22T11:41:51.358Z,99719.02
2018-09-22T11:44:19.165Z,99712.47
2018-09-22T11:46:46.894Z,99710.28
2018-09-22T11:49:14.597Z,99712.95
2018-09-22T11:51:42.324Z,99710.30
2018-09-22T11:54:10.050Z,99708.61
2018-09-22T11:56:37.775Z,99711.48
2018-09-22T11:59:05.510Z,99702.91
2018-09-22T12:01:33.253Z,99707.58
2018-09-22T12:04:00.988Z,99702.48
2018-09-22T12:06:28.741Z,99705.13
2018-09-22T12:08:56.472Z,99703.42
2018-09-22T12:11:24.192Z,99703.05
2018-09-22T12:13:51.923Z,99703.23
2018-09-22T12:16:19.648Z,99702.84
2018-09-22T12:18:47.394Z,99695.61
2018-09-22T12:21:15.152Z,99698.14
2018-09-22T12:23:42.911Z,99696.78
2018-09-22T12:26:10.642Z,99696.59
2018-09-22T12:28:38.369Z,99695.59
2018-09-22T12:31:06.106Z,99694.38
2018-09-22T12:33:33.877Z,99686.00
2018-09-22T12:36:01.717Z,99681.82
2018-09-22T12:38:29.434Z,99687.01
2018-09-22T12:40:57.155Z,99678.59
2018-09-22T12:43:24.874Z,99678.92
2018-09-22T12:45:52.621Z,99676.23
2018-09-22T12:48:20.334Z,99669.34
2018-09-22T12:50:48.094Z,99664.30
2018-09-22T12:53:15.825Z,99666.46
2018-09-22T12:55:43.583Z,99666.95
2018-09-22T12:58:11.330Z,99658.94
2018-09-22T13:00:39.093Z,99653.80
2018-09-22T13:03:06.866Z,99649.03
2018-09-22T13:05:34.598Z,99639.57
2018-09-22T13:08:02.363Z,99643.08
2018-09-22T13:10:30.092Z,99638.53
2018-09-22T13:12:57.826Z,99636.11
2018-09-22T13:15:25.570Z,99636.84
2018-09-22T13:17:53.282Z,99634.16
2018-09-22T13:20:21.104Z,99630.30
2018-09-22T13:22:48.758Z,99626.41
2018-09-22T13:25:16.483Z,99628.25
2018-09-22T13:27:44.210Z,99625.88
2018-09-22T13:30:11.949Z,99623.33
2018-09-22T13:32:39.661Z,99619.90
2018-09-22T13:35:07.713Z,99617.63
2018-09-22T13:37:35.432Z,99622.48
2018-09-22T13:40:03.223Z,99624.09
2018-09-22T13:42:30.993Z,99621.23
2018-09-22T13:44:58.742Z,99621.86
2018-09-22T13:47:26.497Z,99619.20
2018-09-22T13:49:54.219Z,99614.19
2018-09-22T13:52:21.957Z,99613.27
2018-09-22T13:54:49.689Z,99611.11
2018-09-22T13:57:17.426Z,99613.89
2018-09-22T13:59:45.156Z,99615.28
2018-09-22T14:02:12.907Z,99611.58
2018-09-22T14:04:40.629Z,99610.36
2018-09-22T14:07:08.366Z,99607.88
2018-09-22T14:09:36.089Z,99615.52
2018-09-22T14:12:03.800Z,99612.55
2018-09-22T14:14:31.550Z,99616.97
2018-09-22T14:16:59.299Z,99615.34
2018-09-22T14:19:27.018Z,99619.54
2018-09-22T14:21:54.774Z,99620.39
2018-09-22T14:24:22.573Z,99620.27
2018-09-22T14:26:50.268Z,99617.25
2018-09-22T14:29:18.076Z,99616.69
2018-09-22T14:31:45.849Z,99615.84
2018-09-22T14:34:13.597Z,99614.69
2018-09-22T14:36:41.319Z,99612.08
2018-09-22T14:39:09.081Z,99610.34
2018-09-22T14:41:36.798Z,99616.81
2018-09-22T14:44:04.518Z,99611.42
2018-09-22T14:46:32.238Z,99605.37
2018-09-22T14:48:59.964Z,99607.79
2018-09-22T14:51:27.718Z,99610.98
2018-09-22T14:53:55.434Z,99606.31
2018-09-22T14:56:23.164Z,99603.17
2018-09-22T14:58:50.930Z,99603.83
2018-09-22T15:01:18.674Z,99609.27
2018-09-22T15:03:46.461Z,99602.92
2018-09-22T15:06:14.180Z,99601.57
2018-09-22T15:08:41.893Z,99608.79
2018-09-22T15:11:09.654Z,99605.11
2018-09-22T15:13:37.390Z,99607.67
2018-09-22T15:16:05.114Z,99611.52
2018-09-22T15:18:32.841Z,99617.58
2018-09-22T15:21:00.553Z,99617.58
2018-09-22T15:23:28.265Z,99614.02
2018-09-22T15:25:56.027Z,99616.55
2018-09-22T15:28:23.777Z,99610.36
2018-09-22T15:30:51.549Z,99609.50
2018-09-22T15:33:19.294Z,99612.08
2018-09-22T15:35:47.097Z,99608.05
2018-09-22T15:38:14.826Z,99614.11
2018-09-22T15:40:42.546Z,99621.31
2018-09-22T15:43:10.292Z,99621.48
2018-09-22T15:45:38.068Z,99625.89
2018-09-22T15:48:05.858Z,99620.85
2018-09-22T15:50:33.563Z,99616.66
2018-09-22T15:53:01.322Z,99624.89
2018-09-22T15:55:29.058Z,99625.39
2018-09-22T15:57:56.751Z,99627.57
2018-09-22T16:00:26.787Z,99632.96
2018-09-22T16:02:54.498Z,99635.66
2018-09-22T16:05:22.198Z,99634.28
2018-09-22T16:07:49.966Z,99631.78
2018-09-22T16:10:17.710Z,99632.30
2018-09-22T16:12:45.431Z,99630.59
2018-09-22T16:15:13.141Z,99629.59
2018-09-22T16:17:40.857Z,99639.02
2018-09-22T16:20:08.592Z,99635.64
2018-09-22T16:22:36.294Z,99637.48
2018-09-22T16:25:04.115Z,99640.19
2018-09-22T16:27:31.823Z,99646.58
2018-09-22T16:29:59.530Z,99650.28
2018-09-22T16:32:27.609Z,99644.38
2018-09-22T16:34:55.346Z,99646.06
2018-09-22T16:37:23.095Z,99645.39
2018-09-22T16:39:50.875Z,99644.88
2018-09-22T16:42:18.611Z,99645.04
2018-09-22T16:44:46.359Z,99649.09
2018-09-22T16:47:14.087Z,99652.20
2018-09-22T16:49:41.789Z,99656.27
2018-09-22T16:52:09.503Z,99661.85
2018-09-22T16:54:37.218Z,99659.48
2018-09-22T16:57:04.987Z,99669.02
2018-09-22T16:59:32.773Z,99671.31
2018-09-22T17:03:03.675Z,99669.79
2018-09-22T17:05:31.406Z,99670.64
2018-09-22T17:07:59.145Z,99684.92
2018-09-22T17:10:26.871Z,99680.53
2018-09-22T17:12:54.631Z,99677.61
2018-09-22T17:15:22.345Z,99683.84
2018-09-22T17:17:50.146Z,99681.24
2018-09-22T17:20:17.895Z,99684.00
2018-09-22T17:22:45.608Z,99681.53
2018-09-22T17:25:13.378Z,99689.69
2018-09-22T17:27:41.147Z,99692.92
2018-09-22T17:30:08.889Z,99696.39
2018-09-22T17:32:36.621Z,99697.77
2018-09-22T17:35:04.427Z,99701.67
2018-09-22T17:37:32.130Z,99697.80
2018-09-22T17:39:59.842Z,99702.47
2018-09-22T17:42:27.582Z,99709.48
2018-09-22T17:44:55.327Z,99713.98
2018-09-22T17:47:23.063Z,99719.03
2018-09-22T17:49:50.814Z,99718.50
2018-09-22T17:52:18.556Z,99730.28
2018-09-22T17:54:46.272Z,99730.52
2018-09-22T17:57:14.005Z,99729.56
2018-09-22T17:59:41.795Z,99730.45
2018-09-22T18:02:09.712Z,99730.43
2018-09-22T18:04:37.461Z,99736.17
2018-09-22T18:07:05.320Z,99737.55
2018-09-22T18:09:33.065Z,99750.14
2018-09-22T18:12:00.823Z,99753.70
2018-09-22T18:14:29.409Z,99749.06
2018-09-22T18:16:57.149Z,99749.90
2018-09-22T18:19:24.981Z,99755.85
2018-09-22T18:21:52.937Z,99762.22
2018-09-22T18:24:20.781Z,99764.98
2018-09-22T18:26:48.502Z,99769.36
2018-09-22T18:29:16.230Z,99769.48
2018-09-22T18:31:43.994Z,99777.09
2018-09-22T18:34:12.158Z,99776.11
2018-09-22T18:36:39.933Z,99784.16
2018-09-22T18:39:08.146Z,99777.52
2018-09-22T18:41:36.141Z,99776.75
2018-09-22T18:44:04.170Z,99782.25
2018-09-22T18:46:31.933Z,99786.91
2018-09-22T18:48:59.706Z,99785.98
2018-09-22T18:51:27.425Z,99785.13
2018-09-22T18:53:55.139Z,99785.28
2018-09-22T18:56:22.893Z,99787.39
2018-09-22T18:58:50.678Z,99789.57
2018-09-22T19:01:18.632Z,99782.73
2018-09-22T19:03:46.393Z,99790.48
2018-09-22T19:06:14.146Z,99794.54
2018-09-22T19:08:41.860Z,99795.78
2018-09-22T19:11:09.666Z,99789.38
2018-09-22T19:13:41.898Z,99790.83
2018-09-22T19:16:15.033Z,99790.91
2018-09-22T19:18:48.494Z,99794.23
2018-09-22T19:21:23.437Z,99801.53
2018-09-22T19:23:58.776Z,99799.84
2018-09-22T19:26:31.929Z,99801.15
2018-09-22T19:29:17.126Z,99795.55
2018-09-22T19:31:50.442Z,99788.24
2018-09-22T19:34:22.379Z,99777.05
2018-09-22T19:36:55.242Z,99778.21
2018-09-22T19:39:54.750Z,99780.91
2018-09-22T19:42:30.003Z,99778.23
2018-09-22T19:45:04.978Z,99786.52
2018-09-22T19:47:56.850Z,99787.55
2018-09-22T19:50:28.909Z,99790.20
2018-09-22T19:52:57.719Z,99787.02
2018-09-22T19:55:25.453Z,99794.42
2018-09-22T19:57:53.215Z,99790.23
2018-09-22T20:00:20.933Z,99794.23
2018-09-22T20:02:48.668Z,99786.08
2018-09-22T20:05:16.394Z,99790.45
2018-09-22T20:07:44.102Z,99786.80
2018-09-22T20:10:11.823Z,99786.39
2018-09-22T20:12:39.582Z,99789.95
2018-09-22T20:15:07.318Z,99786.52
2018-09-22T20:17:35.095Z,99794.02
2018-09-22T20:20:02.818Z,99794.22
2018-09-22T20:22:30.573Z,99801.76
2018-09-22T20:24:58.296Z,99803.62
2018-09-22T20:27:26.047Z,99798.37
2018-09-22T20:29:53.766Z,99801.88
2018-09-22T20:32:21.578Z,99798.77
2018-09-22T20:34:49.287Z,99807.33
2018-09-22T20:37:17.020Z,99811.97
2018-09-22T20:39:44.766Z,99817.77
2018-09-22T20:42:12.482Z,99816.83
2018-09-22T20:44:40.203Z,99820.32
2018-09-22T20:47:07.934Z,99827.67
2018-09-22T20:49:35.661Z,99828.52
2018-09-22T20:52:03.369Z,99830.30
2018-09-22T20:54:31.083Z,99829.25
2018-09-22T20:56:58.810Z,99823.36
2018-09-22T20:59:26.528Z,99819.55
2018-09-22T21:01:54.309Z,99817.14
2018-09-22T21:04:22.034Z,99823.08
2018-09-22T21:06:49.742Z,99815.72
2018-09-22T21:09:17.451Z,99816.94
2018-09-22T21:11:45.167Z,99816.20
2018-09-22T21:14:12.900Z,99817.33
2018-09-22T21:16:40.602Z,99826.19
2018-09-22T21:19:08.402Z,99831.24
2018-09-22T21:21:36.126Z,99836.95
2018-09-22T21:24:03.873Z,99842.28
2018-09-22T21:26:31.615Z,99842.69
2018-09-22T21:28:59.335Z,99842.81
2018-09-22T21:31:27.058Z,99840.57
2018-09-22T21:33:54.802Z,99836.62
2018-09-22T21:36:22.513Z,99831.66
2018-09-22T21:38:50.241Z,99838.14
2018-09-22T21:41:17.943Z,99839.78
2018-09-22T21:43:45.730Z,99844.20
2018-09-22T21:46:13.437Z,99848.36
2018-09-22T21:48:41.159Z,99848.41
2018-09-22T21:51:08.880Z,99850.41
2018-09-22T21:53:36.715Z,99853.27
2018-09-22T21:56:04.466Z,99846.54
2018-09-22T21:58:32.194Z,99851.19
2018-09-22T22:00:59.941Z,99846.53
2018-09-22T22:03:27.713Z,99848.74
2018-09-22T22:05:55.476Z,99862.17
2018-09-22T22:08:23.282Z,99866.17
2018-09-22T22:10:51.043Z,99861.52
2018-09-22T22:13:18.805Z,99862.30
2018-09-22T22:15:46.608Z,99874.16
2018-09-22T22:18:14.408Z,99874.92
2018-09-22T22:20:42.173Z,99879.97
2018-09-22T22:23:10.022Z,99875.14
2018-09-22T22:25:37.927Z,99871.30
2018-09-22T22:28:05.942Z,99872.68
2018-09-22T22:30:33.720Z,99876.92
2018-09-22T22:33:01.468Z,99875.06
2018-09-22T22:35:29.233Z,99876.77
2018-09-22T22:37:56.985Z,99878.70
2018-09-22T22:40:24.755Z,99886.59
2018-09-22T22:42:52.527Z,99892.28
2018-09-22T22:45:20.336Z,99897.71
2018-09-22T22:47:49.971Z,99898.05
2018-09-22T22:50:20.267Z,99896.38
2018-09-22T22:52:48.644Z,99895.18
2018-09-22T22:55:16.384Z,99892.51
2018-09-22T22:57:44.078Z,99883.26
2018-09-22T23:00:11.800Z,99879.81
2018-09-22T23:02:40.068Z,99884.18
2018-09-22T23:05:07.790Z,99885.92
2018-09-22T23:07:35.500Z,99887.31
2018-09-22T23:10:03.265Z,99891.69
2018-09-22T23:12:30.974Z,99889.50
2018-09-22T23:14:59.672Z,99889.27
2018-09-22T23:17:27.394Z,99898.52
2018-09-22T23:19:55.136Z,99898.33
2018-09-22T23:22:22.838Z,99899.71
2018-09-22T23:24:50.578Z,99902.58
2018-09-22T23:27:18.326Z,99900.02
2018-09-22T23:29:46.061Z,99900.20
2018-09-22T23:32:13.906Z,99899.59
2018-09-22T23:34:41.707Z,99902.23
2018-09-22T23:37:09.519Z,99899.30
2018-09-22T23:39:37.228Z,99891.91
2018-09-22T23:42:04.971Z,99886.58
2018-09-22T23:44:32.689Z,99882.88
2018-09-22T23:47:00.423Z,99872.17
2018-09-22T23:49:28.124Z,99881.04
2018-09-22T23:51:56.164Z,99886.94
2018-09-22T23:54:23.955Z,99890.44
2018-09-22T23:56:52.157Z,99896.39
2018-09-22T23:59:20.230Z,99901.49
